Date,TemperatureHighF,TemperatureAvgF,TemperatureLowF,DewpointHighF,DewpointAvgF,DewpointLowF,HumidityHigh,HumidityAvg,HumidityLow,PressureMaxIn,PressureMinIn,WindSpeedMaxMPH,WindSpeedAvgMPH,GustSpeedMaxMPH,PrecipitationSumIn
2013-1-1,66.5,53.9,45.1,64.4,50.2,39.9,93,87,81,30.19,29.88,14,3,14,0.10
2013-1-2,45.1,43.0,42.3,40.1,37.1,35.5,84,80,76,30.29,30.16,17,3,17,0.00
2013-1-3,51.9,45.5,39.0,37.2,34.7,31.9,81,67,47,30.40,30.28,15,3,15,0.00
2013-1-4,49.0,47.2,44.5,38.9,37.6,36.6,74,69,63,30.48,30.34,12,3,12,0.00
2013-1-5,47.2,45.5,42.6,44.7,42.1,38.2,91,88,73,30.37,30.24,7,2,8,0.59
2013-1-6,57.6,48.0,41.6,45.4,41.4,36.6,93,79,54,30.36,30.24,13,2,13,0.00
2013-1-7,58.6,48.4,38.3,48.7,42.3,35.0,89,80,66,30.31,30.07,8,1,8,0.00
2013-1-8,63.5,57.4,50.1,61.4,54.4,46.3,93,90,78,30.08,29.84,13,3,13,0.37
2013-1-9,66.5,63.7,61.2,63.1,61.2,58.6,93,92,88,30.03,29.82,12,2,12,1.67
2013-1-10,67.2,59.1,49.6,59.2,53.2,45.8,93,82,56,30.08,29.96,6,0,6,0.03
2013-1-11,73.0,58.7,44.9,64.1,54.7,42.1,93,87,71,30.04,29.85,6,0,6,0.01
2013-1-12,74.2,71.4,64.9,69.9,68.1,62.8,93,89,85,29.86,29.68,8,1,10,0.12
2013-1-13,70.9,46.9,41.3,68.0,41.4,37.3,92,81,69,30.13,29.75,19,5,19,0.11
2013-1-14,45.4,42.7,38.2,39.8,37.9,35.1,90,83,74,30.22,30.06,14,4,16,0.01
2013-1-15,43.2,38.9,37.0,38.7,35.6,33.1,91,88,84,30.16,30.03,15,4,15,0.06
2013-1-16,50.0,41.1,31.9,34.0,28.5,21.9,87,63,35,30.30,30.14,14,2,14,0.00
2013-1-17,61.7,45.5,29.9,38.9,32.1,25.4,87,63,36,30.45,30.27,11,1,11,0.00
2013-1-18,62.7,48.3,37.7,44.2,38.2,33.4,87,70,44,30.51,30.35,8,1,8,0.00
2013-1-19,70.7,50.9,38.2,51.7,43.2,33.9,92,77,45,30.36,30.16,8,0,8,0.00
2013-1-20,71.7,54.9,45.4,57.2,48.7,42.9,93,81,52,30.27,30.10,4,0,4,0.01
2013-1-21,70.6,55.3,44.9,57.6,49.3,42.7,93,81,59,30.23,30.13,3,0,4,0.00
2013-1-22,72.0,57.4,47.1,56.3,49.9,43.7,92,77,54,30.31,30.19,5,0,5,0.00
2013-1-23,76.6,60.2,47.2,63.0,54.1,44.3,93,81,56,30.33,30.20,8,0,8,0.01
2013-1-24,80.5,66.8,59.0,66.8,60.6,56.0,93,82,57,30.27,30.11,8,1,8,0.01
2013-1-25,79.8,68.2,60.5,65.3,61.8,57.8,92,81,58,30.16,30.03,10,1,11,0.00
2013-1-26,79.3,67.8,60.0,65.8,60.8,56.8,93,80,54,30.16,30.05,7,0,7,0.00
2013-1-27,77.4,67.3,58.6,68.1,63.0,55.9,93,86,70,30.11,30.00,8,1,8,0.03
2013-1-28,81.8,72.8,69.2,67.9,66.2,64.5,88,80,57,30.07,29.92,8,1,11,0.00
2013-1-29,76.8,72.0,59.7,69.5,66.7,54.0,88,83,71,29.93,29.57,15,2,16,0.05
2013-1-30,60.6,55.1,40.3,54.3,33.8,26.4,81,46,33,30.23,29.74,24,2,25,0.00
2013-1-31,69.5,50.1,34.3,39.3,32.7,28.8,84,56,23,30.31,30.19,7,0,7,0.00
2013-2-1,72.2,55.8,45.6,50.0,42.4,36.4,82,63,31,30.35,30.22,8,1,11,0.00
2013-2-2,75.8,59.9,47.3,58.4,50.3,43.6,92,73,45,30.24,30.14,5,0,6,0.00
2013-2-3,71.7,59.9,51.0,52.2,44.0,34.0,87,59,28,30.31,30.03,10,1,10,0.00
2013-2-4,73.7,63.1,55.9,63.8,57.7,48.3,92,82,69,30.04,29.80,6,0,6,0.11
2013-2-5,79.2,68.6,63.3,68.8,64.0,60.9,93,86,67,29.97,29.84,6,0,6,0.00
2013-2-6,66.7,64.2,60.7,63.8,61.0,56.8,93,89,84,30.00,29.81,13,2,13,0.32
2013-2-7,69.7,63.3,55.7,63.6,59.2,52.8,95,86,79,29.98,29.87,5,0,6,0.00
2013-2-8,69.0,60.4,52.7,60.5,51.8,48.6,90,74,54,30.16,29.98,11,2,11,0.00
2013-2-9,69.7,62.6,53.6,65.3,57.4,49.5,89,83,74,30.10,29.83,14,3,14,0.00
2013-2-10,73.3,65.9,57.5,69.2,57.5,44.4,90,75,49,29.94,29.71,14,2,16,0.06
2013-2-11,62.8,56.7,53.5,52.0,50.0,44.8,92,79,55,30.04,29.93,13,4,13,0.01
2013-2-12,63.2,57.4,54.3,58.0,53.9,50.8,94,88,77,29.98,29.80,9,2,11,0.17
2013-2-13,59.5,51.9,45.1,50.7,41.4,37.4,83,68,51,30.11,29.97,14,2,14,0.00
2013-2-14,67.3,50.5,36.3,46.7,38.5,32.8,91,67,33,30.16,30.02,4,0,4,0.00
2013-2-15,66.9,53.0,40.6,46.5,40.8,35.2,88,66,39,30.32,30.07,16,2,16,0.00
2013-2-16,60.9,49.0,38.8,36.1,31.0,26.3,73,52,31,30.43,30.24,11,1,12,0.00
2013-2-17,73.4,55.2,37.5,52.9,42.6,32.3,91,65,35,30.25,30.02,11,1,11,0.00
2013-2-18,75.2,66.3,57.1,66.8,59.6,49.3,90,79,67,30.06,29.82,14,1,14,0.28
2013-2-19,67.5,58.1,48.8,49.5,41.3,34.2,72,56,30,30.23,30.06,11,3,12,0.00
2013-2-20,62.1,57.5,53.9,59.5,49.0,34.1,92,75,44,30.10,29.74,16,6,17,0.06
2013-2-21,77.1,68.1,57.4,71.6,59.4,47.1,93,76,43,29.83,29.64,12,2,12,0.08
2013-2-22,64.1,59.3,54.3,51.5,46.9,40.2,74,63,51,29.97,29.82,12,3,12,0.00
2013-2-23,69.5,57.0,46.9,53.8,45.7,40.4,80,67,47,29.99,29.86,12,2,12,0.00
2013-2-24,69.8,58.6,44.4,58.1,50.3,40.2,88,75,58,29.92,29.63,11,3,11,0.00
2013-2-25,75.3,62.5,48.5,63.7,44.8,24.8,93,59,17,29.78,29.51,14,2,15,0.01
2013-2-26,64.5,52.9,44.0,41.1,35.7,33.1,66,53,34,29.92,29.77,12,1,12,0.00
2013-2-27,69.3,55.4,45.6,51.1,38.6,29.2,86,56,34,30.16,29.88,15,2,16,0.00
2013-2-28,57.2,48.8,42.3,33.7,30.7,28.3,63,50,38,30.28,30.14,12,2,13,0.00
2013-3-1,64.3,51.1,36.8,35.0,30.8,26.3,79,50,25,30.29,30.12,16,1,16,0.00
2013-3-2,55.7,47.4,39.5,34.9,28.6,22.0,73,50,28,30.37,30.24,21,2,21,0.00
2013-3-3,73.2,52.7,33.4,48.7,36.9,24.9,80,58,30,30.29,29.99,7,0,8,0.00
2013-3-4,80.0,65.4,51.4,62.0,56.4,47.3,89,74,49,29.99,29.75,16,2,17,0.00
2013-3-5,67.3,61.5,48.9,61.7,41.1,25.9,86,51,25,30.30,29.78,22,4,23,0.00
2013-3-6,65.9,52.5,39.5,40.6,29.1,21.3,68,43,19,30.41,30.21,12,1,12,0.00
2013-3-7,73.1,58.3,41.9,50.4,46.4,37.1,88,66,39,30.26,30.13,9,1,10,0.00
2013-3-8,71.5,59.7,53.7,60.9,54.4,49.0,92,83,66,30.18,30.05,11,2,12,0.00
2013-3-9,77.2,68.7,61.6,66.2,62.2,57.4,89,80,66,30.05,29.72,10,1,10,0.00
2013-3-10,68.8,62.3,53.2,64.5,52.8,38.4,91,73,46,30.05,29.70,24,3,24,0.18
2013-3-11,60.9,53.0,46.5,38.9,31.0,22.5,67,46,25,30.12,29.98,15,2,17,0.00
2013-3-12,75.3,54.9,38.2,45.5,36.8,30.8,83,55,25,30.22,30.06,6,0,6,0.00
2013-3-13,72.8,58.4,44.0,47.6,42.1,37.8,86,58,30,30.43,30.22,11,1,11,0.00
2013-3-14,78.2,60.1,44.4,53.8,46.9,39.9,91,65,36,30.39,30.24,9,0,9,0.00
2013-3-15,82.3,63.2,46.5,61.7,52.6,42.3,92,71,42,30.26,30.03,10,1,10,0.00
2013-3-16,83.3,67.4,53.7,62.6,58.1,50.6,92,74,44,30.03,29.81,10,1,12,0.00
2013-3-17,84.5,71.1,60.9,68.3,63.3,57.9,92,78,53,29.85,29.65,12,1,12,0.00
2013-3-18,90.8,76.6,65.9,70.6,64.5,58.4,91,69,38,29.87,29.68,16,1,16,0.00
2013-3-19,81.1,70.5,63.1,67.5,60.0,53.0,84,70,54,29.96,29.84,11,3,11,0.00
2013-3-20,73.7,63.9,55.9,62.6,49.9,38.1,89,65,30,30.17,29.91,19,3,20,0.60
2013-3-21,75.2,62.9,52.7,60.8,54.7,47.1,89,76,51,30.02,29.67,10,1,10,0.00
2013-3-22,83.2,73.4,64.9,71.5,66.7,60.8,91,80,66,29.72,29.63,8,0,8,0.00
2013-3-23,75.5,68.7,61.4,67.6,63.6,57.1,90,84,75,29.72,29.56,8,1,8,0.00
2013-3-24,66.9,56.2,48.3,62.1,40.9,30.4,90,59,34,30.13,29.62,25,5,25,0.00
2013-3-25,60.1,50.0,40.3,33.2,28.3,22.4,72,46,25,30.36,30.13,13,3,13,0.00
2013-3-26,62.7,51.1,37.3,31.7,26.9,24.0,63,41,23,30.48,30.29,11,1,12,0.00
2013-3-27,71.9,55.6,38.5,49.7,41.4,29.3,81,61,38,30.35,30.18,9,1,10,0.00
2013-3-28,73.8,64.2,54.8,61.3,55.8,48.6,87,74,61,30.23,30.14,8,1,8,0.00
2013-3-29,77.0,66.7,57.3,63.4,59.4,54.2,91,78,54,30.19,30.07,7,1,7,0.00
2013-3-30,84.0,71.0,62.6,66.6,62.8,59.4,92,77,50,30.12,29.92,7,0,7,0.00
2013-3-31,88.7,70.4,62.6,70.9,64.2,59.2,91,82,49,29.96,29.82,15,1,18,0.59
2013-4-1,80.2,68.8,59.0,68.0,62.6,56.3,92,81,62,30.03,29.91,7,1,7,0.00
2013-4-2,70.8,66.5,62.2,65.9,62.7,58.8,92,88,82,29.98,29.72,21,3,21,1.08
2013-4-3,63.4,59.5,52.8,60.7,56.1,49.6,92,89,82,30.07,29.68,15,3,18,0.14
2013-4-4,56.6,52.3,50.3,49.9,46.5,42.6,91,81,68,30.18,30.02,16,2,17,0.01
2013-4-5,71.5,58.2,45.4,55.7,48.0,41.1,89,70,51,30.24,30.06,11,1,11,0.00
2013-4-6,78.8,63.3,50.1,62.9,55.2,46.7,92,76,54,30.10,29.91,7,0,8,0.00
2013-4-7,81.3,68.7,59.2,66.7,60.9,56.1,92,77,57,29.96,29.81,9,1,9,0.00
2013-4-8,83.8,72.2,64.6,69.5,65.4,61.6,92,80,57,29.85,29.72,11,2,11,0.00
2013-4-9,85.0,74.9,68.1,73.9,68.5,64.7,89,81,65,29.76,29.64,11,2,13,0.00
2013-4-10,79.9,64.7,49.0,72.2,60.3,45.1,91,86,66,29.85,29.67,18,3,18,0.03
2013-4-11,67.8,55.1,43.7,47.6,43.8,39.3,88,68,44,29.95,29.76,17,3,17,0.43
2013-4-12,78.8,63.7,46.4,57.5,48.6,42.1,89,62,28,29.99,29.84,9,1,9,0.00
2013-4-13,77.5,64.7,51.9,60.4,54.8,48.4,92,72,47,29.95,29.78,12,2,14,0.00
2013-4-14,86.5,69.0,56.1,72.6,62.7,52.8,92,81,56,29.79,29.62,7,0,7,0.00
2013-4-15,83.0,74.2,68.2,73.4,68.6,65.0,90,83,71,29.82,29.71,7,1,8,0.00
2013-4-16,84.0,75.6,69.0,73.1,70.1,66.2,92,83,68,29.91,29.80,11,2,11,0.00
2013-4-17,77.4,74.0,72.2,72.8,70.6,69.4,91,89,85,29.91,29.71,9,2,9,0.00
2013-4-18,76.8,64.8,53.7,71.8,59.8,44.8,90,84,72,30.03,29.67,18,3,22,0.08
2013-4-19,65.8,55.5,47.4,44.8,35.9,29.2,71,50,27,30.23,30.02,24,4,24,0.00
2013-4-20,71.0,56.6,40.5,49.3,42.3,33.9,84,60,38,30.24,30.06,11,1,11,0.00
2013-4-21,75.0,62.9,51.8,62.4,53.6,46.6,87,72,56,30.15,30.02,10,2,10,0.00
2013-4-22,83.5,66.9,52.6,66.6,58.3,49.1,91,75,51,30.10,29.90,9,1,9,0.00
2013-4-23,81.3,70.7,60.4,70.2,64.0,54.6,93,80,64,29.97,29.84,9,1,9,0.00
2013-4-24,69.1,58.6,48.2,54.7,47.1,42.1,86,67,46,30.19,29.97,21,5,21,0.00
2013-4-25,74.0,64.6,58.0,59.0,49.3,43.4,76,58,37,30.28,30.15,14,4,14,0.00
2013-4-26,83.4,73.2,66.1,72.1,66.1,59.0,89,79,62,30.18,30.04,7,1,8,0.00
2013-4-27,79.9,69.6,64.1,73.2,66.0,61.5,92,88,76,30.10,29.93,14,1,14,2.13
2013-4-28,82.3,71.3,63.2,69.5,64.5,60.2,92,80,62,30.03,29.86,10,0,10,0.03
2013-4-29,84.1,71.3,65.1,71.9,66.1,62.1,93,84,58,29.92,29.80,6,0,7,0.03
2013-4-30,88.1,74.2,65.8,72.9,67.2,63.4,93,80,56,29.82,29.69,6,0,6,0.01
2013-5-1,88.3,76.2,66.5,72.9,67.7,63.1,92,76,53,29.87,29.77,7,0,8,0.00
2013-5-2,76.8,65.5,49.6,68.0,58.2,42.1,90,78,65,30.19,29.86,23,4,23,0.00
2013-5-3,66.7,55.7,46.7,42.4,36.4,29.4,76,52,26,30.20,30.04,25,5,25,0.00
2013-5-4,82.5,63.1,42.9,52.5,44.1,35.8,82,54,27,30.08,29.83,9,1,10,0.00
2013-5-5,71.3,62.7,53.3,51.9,46.8,42.2,72,57,41,30.09,29.94,15,2,15,0.00
2013-5-6,77.8,64.5,50.9,57.2,51.1,44.6,84,63,46,30.10,29.95,9,0,9,0.00
2013-5-7,87.4,71.3,55.0,65.6,57.6,50.8,89,64,40,30.05,29.92,6,0,6,0.00
2013-5-8,85.5,72.0,59.5,69.3,62.4,55.7,91,73,48,30.03,29.92,7,1,7,0.00
2013-5-9,80.0,73.7,66.8,72.9,68.9,62.8,90,85,75,29.97,29.81,8,0,8,0.01
2013-5-10,78.8,72.4,65.2,70.4,67.5,62.0,93,85,69,30.02,29.79,24,2,24,2.05
2013-5-11,84.0,73.4,64.4,71.0,63.6,55.7,92,73,51,30.06,29.91,12,2,13,0.00
2013-5-12,80.6,72.0,63.5,63.9,58.1,53.8,79,62,42,30.15,30.04,10,2,10,0.00
2013-5-13,84.1,70.8,57.7,67.7,59.1,52.8,86,68,47,30.25,30.13,8,1,9,0.00
2013-5-14,84.8,71.3,58.6,71.1,63.7,55.3,93,78,57,30.20,30.05,7,0,7,0.00
2013-5-15,81.5,72.1,66.9,72.1,67.2,63.6,91,85,70,30.11,29.88,9,0,9,0.02
2013-5-16,85.9,76.3,69.0,75.4,69.9,65.6,91,81,65,29.92,29.77,8,1,9,0.01
2013-5-17,90.3,79.2,71.7,78.4,72.1,68.3,90,79,64,29.91,29.80,9,0,9,0.00
2013-5-18,92.4,80.7,73.9,76.7,72.1,68.7,90,76,54,29.92,29.84,7,0,8,0.00
2013-5-19,90.4,80.6,73.8,76.4,71.9,69.7,87,75,58,29.87,29.75,13,1,13,0.00
2013-5-20,90.5,81.2,75.7,77.4,73.3,70.9,86,77,62,29.85,29.72,9,1,9,0.00
2013-5-21,89.8,81.4,75.8,77.3,73.6,71.7,88,77,63,29.83,29.67,9,1,9,0.00
2013-5-22,92.0,79.3,72.6,80.3,72.7,66.3,90,81,63,29.88,29.75,12,1,12,0.85
2013-5-23,90.0,80.3,73.1,77.6,73.7,70.3,92,81,63,30.02,29.86,7,1,7,0.00
2013-5-24,89.3,80.2,74.9,77.0,73.2,70.8,91,80,62,30.09,29.97,9,1,9,0.00
2013-5-25,84.0,77.8,73.4,74.7,72.2,70.0,91,83,70,30.11,30.01,7,1,7,0.00
2013-5-26,90.8,80.4,74.1,76.7,72.0,68.3,91,77,52,30.08,29.96,10,0,10,0.00
2013-5-27,90.6,79.5,71.0,76.4,71.5,67.9,91,77,61,30.02,29.88,7,0,9,0.00
2013-5-28,88.8,78.4,72.1,76.2,71.7,68.7,90,80,61,29.93,29.82,10,1,10,0.10
2013-5-29,86.3,78.7,73.8,76.0,72.6,70.0,89,82,68,29.86,29.76,11,1,11,0.00
2013-5-30,89.8,81.1,74.7,79.1,74.4,71.2,90,80,67,29.84,29.76,8,1,10,0.01
2013-5-31,93.1,83.4,77.1,78.7,75.3,73.6,90,78,58,29.86,29.78,8,0,11,0.00
2013-6-1,95.9,84.0,76.7,79.8,75.4,72.8,90,76,54,29.87,29.79,8,0,8,0.00
2013-6-2,83.4,75.7,68.9,73.9,70.3,66.1,93,84,69,30.02,29.85,20,1,20,0.64
2013-6-3,90.0,79.1,68.4,70.5,67.5,63.4,89,70,43,29.94,29.79,7,1,7,0.00
2013-6-4,93.9,80.7,68.9,75.1,70.4,65.2,91,72,46,29.89,29.77,6,0,6,0.00
2013-6-5,94.1,82.4,71.7,77.9,72.7,68.4,92,74,48,29.86,29.71,8,0,8,0.00
2013-6-6,96.8,82.9,72.1,80.4,73.2,67.2,90,74,48,29.86,29.68,22,1,22,0.68
2013-6-7,88.2,77.3,68.9,70.9,66.4,60.3,90,71,44,29.92,29.81,10,1,10,0.00
2013-6-8,91.5,78.5,69.6,77.2,69.0,61.7,88,73,54,29.90,29.78,8,0,8,0.11
2013-6-9,92.2,76.4,71.3,81.2,71.5,67.6,91,85,56,29.97,29.82,8,0,8,1.11
2013-6-10,96.2,80.8,70.1,80.6,73.6,67.3,93,80,54,29.96,29.89,9,0,9,0.00
2013-6-11,93.7,81.8,73.9,81.6,75.0,70.7,92,80,62,30.01,29.93,8,0,8,0.00
2013-6-12,94.5,82.2,75.2,82.3,75.6,71.7,92,81,62,30.03,29.93,6,0,6,0.05
2013-6-13,98.0,84.3,74.9,81.9,75.2,71.0,91,75,50,30.03,29.87,6,0,6,0.00
2013-6-14,96.5,85.6,75.6,80.9,75.1,71.3,92,73,47,29.95,29.83,5,0,5,0.00
2013-6-15,95.3,84.1,76.2,80.6,75.2,72.2,89,75,54,29.97,29.85,6,0,6,0.00
2013-6-16,98.7,85.4,73.6,80.4,75.0,70.2,92,73,48,30.00,29.88,5,0,5,0.00
2013-6-17,98.7,85.3,74.8,81.0,75.2,71.3,90,73,48,29.97,29.83,7,0,7,0.00
2013-6-18,96.6,83.8,74.8,79.9,74.5,71.3,90,75,50,29.97,29.83,7,1,7,0.00
2013-6-19,100.0,85.5,74.5,78.9,73.9,69.9,90,70,40,29.96,29.86,6,0,6,0.00
2013-6-20,95.8,85.0,76.6,80.7,74.6,71.6,89,72,51,30.03,29.94,9,0,9,0.00
2013-6-21,97.3,85.0,73.6,79.5,73.7,70.2,92,71,46,30.06,29.96,6,0,7,0.00
2013-6-22,96.3,84.2,74.5,79.2,73.4,70.7,91,72,47,30.03,29.90,12,1,12,0.00
2013-6-23,95.5,83.8,73.4,79.6,73.6,69.7,91,73,52,29.99,29.89,7,0,7,0.00
2013-6-24,99.2,85.5,75.4,78.5,74.1,71.5,89,71,45,30.02,29.92,9,0,9,0.00
2013-6-25,98.5,85.8,76.4,80.0,74.6,71.1,90,71,45,30.00,29.89,8,0,8,0.00
2013-6-26,100.5,86.2,76.0,78.4,74.3,71.5,89,70,42,29.97,29.86,7,0,7,0.00
2013-6-27,100.4,86.1,74.5,79.0,73.5,70.0,91,68,41,30.00,29.86,6,0,6,0.00
2013-6-28,101.3,86.7,74.7,77.7,71.7,64.9,90,65,34,29.96,29.76,7,0,7,0.00
2013-6-29,102.7,89.2,76.1,76.8,72.2,66.1,88,61,32,29.83,29.66,15,1,15,0.00
2013-6-30,97.5,87.9,78.2,74.4,66.0,58.9,82,51,33,29.84,29.73,13,1,13,0.00
2013-7-1,90.4,82.6,72.1,66.7,60.9,58.2,67,49,36,29.92,29.81,13,2,13,0.00
2013-7-2,93.5,81.9,69.9,68.0,62.6,56.8,74,54,31,29.98,29.87,10,1,12,0.00
2013-7-3,99.5,82.4,71.3,70.8,65.3,58.1,82,59,27,29.99,29.85,8,0,9,0.00
2013-7-4,96.7,82.0,70.9,73.3,67.6,64.1,83,63,39,29.96,29.85,7,0,8,0.00
2013-7-5,96.0,83.5,71.0,75.8,69.1,62.9,86,64,36,29.95,29.81,9,1,9,0.00
2013-7-6,94.9,85.0,74.6,75.7,71.8,67.2,88,67,42,29.90,29.80,9,2,11,0.00
2013-7-7,92.2,83.2,75.8,77.9,74.1,72.0,90,75,55,29.97,29.86,10,1,10,0.00
2013-7-8,91.7,80.5,76.0,80.5,73.9,71.3,88,81,62,30.13,29.97,6,0,6,0.14
2013-7-9,99.5,84.3,74.5,80.1,74.8,71.4,92,74,47,30.12,30.00,7,0,8,0.00
2013-7-10,99.6,85.8,75.3,80.0,74.6,71.7,91,71,47,30.07,29.90,7,0,7,0.00
2013-7-11,100.3,86.1,74.7,77.7,73.1,69.0,91,68,40,29.99,29.84,6,0,8,0.00
2013-7-12,98.2,85.7,76.1,77.5,73.6,70.5,88,69,44,29.94,29.83,6,0,7,0.00
2013-7-13,98.8,85.6,73.9,77.2,72.3,68.4,89,66,40,29.95,29.79,7,0,7,0.00
2013-7-14,93.7,83.2,73.4,76.4,72.8,68.7,90,72,52,29.91,29.81,12,1,12,0.09
2013-7-15,89.5,77.7,72.5,77.4,72.2,69.4,90,84,65,30.01,29.88,11,1,12,0.07
2013-7-16,88.1,79.1,74.1,77.7,72.9,70.2,90,81,61,30.08,29.98,8,2,11,0.07
2013-7-17,83.3,77.0,73.8,75.2,72.8,70.7,92,87,75,30.14,30.06,8,1,8,0.12
2013-7-18,93.8,82.8,73.8,77.1,71.2,64.8,91,71,41,30.11,29.95,10,1,10,0.00
2013-7-19,94.9,79.4,74.0,76.9,72.4,69.9,89,80,46,30.03,29.90,13,1,13,0.02
2013-7-20,92.5,79.9,75.2,78.7,73.9,71.4,90,83,59,29.96,29.84,12,0,14,0.05
2013-7-21,89.2,80.1,73.2,80.0,74.5,70.2,93,83,66,29.97,29.88,8,0,8,0.48
2013-7-22,96.7,85.1,77.1,81.2,76.3,73.4,92,76,54,29.98,29.90,8,0,8,0.00
2013-7-23,97.9,85.2,76.1,79.0,74.9,71.5,92,73,44,30.00,29.88,9,0,9,0.00
2013-7-24,98.9,84.8,73.6,79.1,74.1,70.5,92,72,42,29.97,29.83,7,0,7,0.00
2013-7-25,97.5,85.2,74.8,78.8,73.8,69.2,90,71,42,30.00,29.92,6,0,6,0.00
2013-7-26,98.8,85.5,75.1,79.3,75.4,72.0,92,73,48,30.01,29.86,8,0,9,0.00
2013-7-27,96.3,85.0,78.3,78.6,76.1,72.1,91,75,47,29.93,29.81,11,1,11,0.14
2013-7-28,94.9,84.4,79.1,81.3,76.1,73.5,89,77,57,29.94,29.85,7,0,7,0.20
2013-7-29,98.0,85.2,76.6,79.4,74.0,66.4,91,72,39,30.05,29.93,7,0,7,0.00
2013-7-30,98.3,84.9,74.5,79.0,73.6,65.4,91,71,40,30.08,29.97,7,0,7,0.00
2013-7-31,100.0,85.3,73.6,79.5,73.8,69.7,91,71,41,30.06,29.89,7,0,7,0.00
2013-8-1,98.0,85.8,75.6,79.3,74.0,70.3,90,70,42,30.01,29.85,7,0,7,0.00
2013-8-2,98.4,85.7,75.0,78.9,74.6,71.2,91,71,47,29.96,29.85,9,0,9,0.00
2013-8-3,100.3,86.1,74.9,79.7,75.2,71.3,91,72,46,30.01,29.91,7,0,7,0.00
2013-8-4,99.2,86.2,76.9,81.1,76.3,73.4,90,73,49,30.05,29.92,8,0,8,0.00
2013-8-5,101.8,86.6,75.3,78.9,74.6,70.8,91,70,41,30.02,29.88,7,0,9,0.00
2013-8-6,100.1,86.3,76.3,80.1,75.4,72.4,91,72,44,29.94,29.83,10,0,10,0.00
2013-8-7,102.6,86.9,76.7,78.8,74.4,68.0,91,70,36,29.91,29.79,7,0,8,0.00
2013-8-8,101.5,85.9,73.8,79.3,73.8,68.7,92,70,36,29.90,29.77,6,0,8,0.00
2013-8-9,99.1,85.7,73.0,79.3,74.4,69.6,92,71,44,29.94,29.82,5,0,7,0.00
2013-8-10,93.7,84.7,78.7,79.2,75.8,73.3,89,75,53,30.01,29.92,9,1,10,0.00
2013-8-11,93.7,84.4,77.6,78.9,74.9,72.1,89,74,53,30.03,29.95,8,1,9,0.00
2013-8-12,99.3,85.0,75.1,81.6,75.2,71.3,90,74,48,30.04,29.92,9,0,9,0.07
2013-8-13,102.5,87.7,76.1,78.7,74.1,67.7,91,68,36,30.01,29.84,8,0,8,0.00
2013-8-14,101.6,84.3,75.1,77.9,73.8,68.3,91,74,37,29.96,29.81,16,1,17,0.09
2013-8-15,89.3,79.5,73.8,73.9,71.7,68.1,91,78,51,29.99,29.87,6,1,7,0.02
2013-8-16,97.3,82.3,73.0,76.1,71.8,67.5,88,72,43,29.97,29.82,25,1,25,0.00
2013-8-17,91.9,81.2,72.2,71.4,66.9,61.0,89,65,39,29.99,29.86,12,2,12,0.00
2013-8-18,92.3,82.2,71.9,71.3,67.4,62.8,80,63,39,29.99,29.92,10,1,10,0.00
2013-8-19,90.5,76.7,70.7,74.1,69.8,66.6,89,80,55,30.01,29.94,7,1,7,0.00
2013-8-20,89.1,82.0,73.5,75.7,72.5,68.5,89,73,62,30.00,29.93,9,0,9,0.00
2013-8-21,94.4,82.4,73.1,77.6,72.6,68.7,90,74,47,30.04,29.95,9,1,10,0.00
2013-8-22,93.7,82.1,75.8,78.9,74.5,72.1,90,79,55,30.03,29.90,9,1,9,0.00
2013-8-23,96.7,84.9,74.6,77.1,73.0,68.9,89,70,42,29.98,29.83,9,1,9,0.00
2013-8-24,95.9,85.4,77.0,76.7,73.1,68.8,86,68,42,29.99,29.89,12,2,13,0.00
2013-8-25,87.8,80.8,77.1,76.8,73.7,72.0,86,79,66,30.05,29.97,13,3,14,0.00
2013-8-26,81.3,76.3,73.9,75.1,72.7,71.1,91,89,80,30.09,30.01,10,2,10,0.23
2013-8-27,94.0,79.8,72.9,79.5,73.1,70.2,92,81,55,30.08,29.99,9,1,10,0.01
2013-8-28,94.6,82.8,71.9,77.6,72.1,69.0,92,72,49,30.07,29.94,4,0,8,0.00
2013-8-29,98.0,85.0,74.9,77.4,72.7,68.1,89,69,40,30.05,29.88,6,0,6,0.00
2013-8-30,99.5,85.4,76.6,79.3,74.9,72.5,89,72,47,30.00,29.84,6,0,6,0.00
2013-8-31,97.8,84.6,73.8,78.5,73.5,69.7,90,71,48,29.93,29.79,6,0,7,0.00
2013-9-1,100.9,84.4,72.6,77.2,72.8,68.7,90,71,41,29.90,29.78,6,0,6,0.00
2013-9-3,100.9,86.4,74.5,76.1,73.2,69.1,90,68,38,29.96,29.82,1,0,9,0.00
2013-9-4,98.2,85.4,76.5,77.6,73.5,71.4,88,69,46,30.01,29.90,2,0,8,0.00
2013-9-5,95.7,84.4,76.5,77.4,73.8,71.5,88,72,48,30.05,29.95,4,1,12,0.00
2013-9-6,92.1,83.6,76.0,76.7,73.8,71.5,87,73,55,30.04,29.92,5,1,13,0.00
2013-9-7,93.9,81.7,75.7,77.6,73.2,68.9,89,77,54,29.99,29.91,3,1,11,0.00
2013-9-8,92.9,79.1,73.9,76.2,72.5,69.1,91,81,52,29.95,29.86,3,1,20,0.27
2013-9-9,90.5,82.7,73.1,75.6,72.6,69.0,91,72,56,29.95,29.90,14,2,14,0.00
2013-9-10,91.8,80.9,75.1,75.6,73.1,70.7,88,78,53,30.03,29.94,11,1,11,0.02
2013-9-11,93.2,81.9,73.6,76.2,71.9,67.8,90,73,47,30.05,29.94,11,2,11,0.00
2013-9-12,93.7,82.7,74.7,76.0,70.6,65.4,89,69,41,30.00,29.86,10,2,11,0.00
2013-9-13,95.3,82.9,72.8,74.2,69.4,65.0,86,66,38,29.91,29.75,11,1,11,0.00
2013-9-14,92.8,82.3,74.4,76.0,72.9,69.7,88,74,55,29.90,29.80,12,1,12,0.01
2013-9-15,90.5,81.4,74.4,78.4,73.7,70.9,90,78,59,29.97,29.88,12,2,12,0.08
2013-9-16,91.3,81.8,75.5,77.6,74.3,69.1,90,79,59,30.00,29.91,17,2,17,0.00
2013-9-17,93.1,82.8,75.8,76.8,73.9,70.2,91,76,49,30.01,29.89,12,2,12,0.00
2013-9-18,93.8,82.8,75.4,76.9,73.9,71.4,91,76,52,29.96,29.85,11,1,11,0.00
2013-9-19,93.0,80.8,76.3,80.2,75.2,72.6,90,83,62,29.91,29.80,12,1,12,0.20
2013-9-20,84.3,78.3,73.7,80.1,75.1,71.5,93,90,83,29.86,29.69,7,0,9,4.67
2013-9-21,80.3,74.3,71.0,71.5,69.0,66.6,93,84,66,29.81,29.72,14,3,15,0.09
2013-9-22,85.1,75.3,64.9,66.9,61.9,57.8,86,65,41,29.82,29.70,12,2,13,0.00
2013-9-23,87.1,78.7,71.5,72.2,66.6,59.3,79,66,58,29.78,29.69,7,1,8,0.00
2013-9-24,93.3,83.0,75.2,75.5,70.2,63.9,87,67,40,29.83,29.73,11,1,11,0.00
2013-9-25,95.7,80.4,68.0,73.7,65.2,59.6,87,63,33,29.85,29.73,6,0,6,0.00
2013-9-26,92.2,79.1,68.2,75.8,67.2,61.6,91,70,40,29.87,29.78,9,0,9,0.00
2013-9-27,89.8,80.5,72.8,78.9,73.4,67.2,89,79,66,29.90,29.83,10,2,10,0.00
2013-9-28,89.8,81.6,76.7,80.8,75.8,73.1,89,83,69,29.95,29.84,11,1,11,0.00
2013-9-29,84.0,79.3,76.4,76.4,73.9,72.2,91,84,71,29.95,29.85,11,1,11,0.02
2013-9-30,89.7,79.0,73.0,79.4,73.1,69.6,89,82,64,29.89,29.77,7,0,7,0.00
2013-10-1,90.8,79.2,74.5,79.9,73.3,70.7,92,82,66,29.91,29.82,7,0,9,0.00
2013-10-2,86.0,77.6,73.6,78.1,73.0,70.7,92,86,74,29.94,29.85,11,1,11,0.03
2013-10-3,92.4,79.6,72.4,78.5,73.2,69.9,93,81,58,29.92,29.82,4,0,7,0.01
2013-10-4,91.3,79.7,70.7,76.9,72.4,67.9,92,79,56,29.90,29.83,7,0,7,0.00
2013-10-5,90.8,80.3,66.2,76.9,71.0,59.3,92,75,50,29.94,29.80,14,1,14,0.00
2013-10-6,77.9,66.7,55.8,59.5,50.9,42.3,87,60,32,30.10,29.93,16,2,16,0.24
2013-10-7,79.8,66.4,54.5,51.1,46.4,41.8,72,51,27,30.11,29.99,11,1,11,0.00
2013-10-8,82.8,67.2,53.2,59.5,53.2,47.8,86,64,34,30.07,29.94,5,0,5,0.00
2013-10-9,83.0,69.9,57.5,66.8,60.3,54.0,92,73,50,30.05,29.94,6,0,7,0.00
2013-10-10,86.5,73.1,61.1,70.9,63.9,57.6,92,75,51,30.03,29.88,11,0,11,0.00
2013-10-11,88.5,76.9,67.7,77.0,70.6,64.2,90,81,64,29.93,29.83,6,0,7,0.00
2013-10-12,88.7,77.1,72.9,80.6,73.3,69.8,92,88,73,30.02,29.88,10,0,10,0.22
2013-10-13,75.3,73.5,71.6,72.8,70.8,69.1,93,91,88,30.12,30.00,8,1,8,0.52
2013-10-14,85.5,76.6,71.4,76.0,71.1,68.9,93,84,66,30.06,29.92,7,0,7,0.00
2013-10-15,89.7,77.6,69.8,77.1,71.0,67.2,93,81,61,29.96,29.83,5,0,5,0.00
2013-10-16,72.8,66.3,61.8,68.6,62.9,58.6,91,89,83,30.00,29.86,10,1,10,0.08
2013-10-17,75.4,65.9,58.2,59.2,57.0,54.0,92,74,53,30.05,29.93,12,2,12,0.00
2013-10-18,72.3,64.3,58.7,64.8,59.2,53.6,92,83,74,29.98,29.85,12,2,12,0.48
2013-10-19,69.4,62.4,54.4,61.1,52.3,43.2,92,72,39,30.10,29.92,11,2,15,0.52
2013-10-20,76.6,62.2,47.0,61.3,52.4,42.8,88,72,46,30.08,29.91,7,0,7,0.00
2013-10-21,78.3,68.9,61.4,67.8,63.2,57.8,92,82,66,29.96,29.86,7,1,7,0.00
2013-10-22,75.1,66.3,56.6,63.8,57.1,48.3,92,74,42,30.08,29.93,12,2,12,0.00
2013-10-23,82.3,64.3,49.6,58.5,51.5,45.6,89,66,36,30.14,30.05,4,0,4,0.00
2013-10-24,83.0,66.5,52.0,60.7,54.4,47.9,89,68,40,30.20,30.09,6,0,6,0.00
2013-10-25,76.0,64.4,55.3,60.9,56.5,51.1,89,76,58,30.31,30.19,8,1,9,0.00
2013-10-26,82.0,67.4,54.9,67.7,59.6,51.4,88,77,56,30.23,30.07,8,1,8,0.00
2013-10-27,74.0,66.3,60.6,69.1,62.9,57.9,93,89,78,30.09,29.98,25,0,25,0.86
2013-10-28,82.9,71.2,61.0,74.0,66.3,58.6,93,85,71,30.08,29.98,7,0,9,0.00
2013-10-29,84.1,74.3,66.6,73.6,68.6,63.9,92,83,63,30.08,29.99,6,1,9,0.00
2013-10-30,82.2,76.9,72.8,77.9,73.1,69.5,91,88,82,30.03,29.81,9,1,9,0.59
2013-10-31,78.3,71.3,58.0,74.1,65.2,51.9,93,82,46,29.87,29.74,17,0,17,1.32
2013-11-1,81.1,66.0,53.5,63.9,57.6,50.6,92,76,51,29.95,29.79,6,0,6,0.04
2013-11-2,71.9,63.7,55.8,53.7,46.3,39.3,76,55,32,30.20,29.95,17,3,17,0.00
2013-11-3,71.0,58.2,46.5,55.7,49.0,41.9,87,72,55,30.19,30.05,11,1,11,0.00
2013-11-4,68.6,63.6,55.5,65.9,60.0,50.0,92,88,81,30.07,29.96,10,1,10,0.30
2013-11-5,77.4,71.9,67.5,71.4,68.2,64.4,91,88,79,30.01,29.92,5,1,5,0.08
2013-11-6,78.2,67.7,54.5,73.4,63.0,46.5,94,85,68,30.25,29.95,17,2,17,0.01
2013-11-7,65.9,55.9,47.9,46.4,42.3,39.9,77,61,42,30.39,30.23,15,3,15,0.00
2013-11-8,65.7,56.4,48.5,48.5,44.1,39.3,84,65,39,30.35,30.15,11,1,12,0.00
2013-11-9,70.0,61.4,53.5,58.9,53.6,47.3,88,76,63,30.18,30.11,6,0,6,0.00
2013-11-10,72.2,63.0,58.2,55.7,51.7,46.9,88,68,43,30.27,30.16,8,1,8,0.00
2013-11-11,73.7,63.0,53.7,58.6,53.8,50.1,89,73,54,30.24,30.12,6,0,7,0.00
2013-11-12,69.3,57.9,49.0,57.7,51.5,43.1,88,79,61,30.54,30.20,23,4,23,0.00
2013-11-13,54.8,45.7,37.6,42.6,31.8,27.4,79,59,37,30.60,30.39,13,3,15,0.00
2013-11-14,64.3,51.0,39.6,52.7,43.6,33.7,85,76,62,30.39,30.03,8,1,8,0.00
2013-11-15,80.9,66.0,54.1,67.7,59.5,49.3,92,80,60,30.04,29.87,5,0,5,0.00
2013-11-16,82.0,71.1,59.7,74.1,67.2,57.3,93,88,74,29.93,29.77,6,0,7,0.01
2013-11-17,85.8,77.2,70.5,75.7,71.6,67.0,91,83,66,29.92,29.78,9,0,9,0.00
2013-11-18,78.7,71.8,63.8,71.3,63.5,47.8,93,76,52,30.09,29.91,9,2,9,0.00
2013-11-19,69.0,61.7,54.7,51.9,47.9,43.3,81,61,51,30.11,29.99,11,2,13,0.00
2013-11-20,71.9,63.9,52.6,65.5,57.1,46.4,92,79,69,30.01,29.89,11,2,11,0.05
2013-11-21,80.9,74.3,67.9,74.2,70.6,65.3,92,88,79,30.05,29.92,7,1,7,0.01
2013-11-22,73.2,54.2,42.2,70.4,51.4,39.4,92,90,84,30.28,30.02,18,3,18,0.44
2013-11-23,48.6,45.5,41.8,45.5,42.4,39.3,92,89,77,30.37,30.26,17,5,18,0.01
2013-11-24,49.6,45.3,42.7,40.3,35.5,32.4,79,69,55,30.42,30.29,16,4,16,0.01
2013-11-25,43.4,41.5,39.5,40.9,38.5,36.3,97,89,79,30.29,29.96,17,2,17,0.79
2013-11-26,44.7,41.6,39.0,40.1,38.1,36.3,94,88,79,30.28,30.02,18,2,18,0.18
2013-11-27,48.9,41.3,35.5,36.5,30.9,27.3,84,67,44,30.45,30.28,12,1,12,0.00
2013-11-28,55.9,43.5,33.1,45.1,37.3,28.7,92,79,64,30.47,30.37,6,0,7,0.00
2013-11-29,61.6,48.2,37.7,45.0,39.5,34.1,90,73,52,30.50,30.37,7,0,7,0.00
2013-11-30,70.3,55.0,41.8,57.6,48.3,37.8,92,79,61,30.39,30.20,6,0,6,0.00
2013-12-1,73.1,61.5,51.1,64.0,56.9,48.4,92,85,71,30.21,29.93,4,0,5,0.00
2013-12-2,78.0,66.1,59.5,66.0,60.8,56.5,92,84,65,29.93,29.66,5,0,8,0.00
2013-12-3,80.7,67.4,57.7,69.0,62.7,55.2,93,85,65,29.72,29.59,9,0,11,0.01
2013-12-4,80.1,72.7,68.2,71.5,68.1,65.2,92,86,72,29.79,29.67,9,0,9,0.00
2013-12-5,72.6,55.5,37.8,70.1,51.9,35.1,92,88,77,30.02,29.77,17,3,17,0.00
2013-12-6,41.9,38.0,34.4,37.4,34.6,30.0,92,88,83,30.36,29.97,17,4,18,0.06
2013-12-7,36.1,34.7,32.9,33.9,31.3,29.0,92,88,84,30.40,30.26,14,2,14,0.01
2013-12-8,47.4,41.8,35.6,42.7,38.5,33.5,92,88,80,30.27,30.05,6,0,6,0.00
2013-12-9,46.6,44.6,39.4,44.4,42.4,36.7,93,92,90,30.30,30.05,14,2,15,0.04
2013-12-10,47.4,39.1,32.4,36.6,31.1,28.3,92,74,51,30.45,30.30,16,2,16,0.00
2013-12-11,52.6,45.7,36.2,41.8,37.7,30.9,82,74,63,30.50,30.32,7,1,7,0.00
2013-12-12,53.4,45.3,37.6,38.5,36.6,34.0,88,73,51,30.55,30.34,8,1,8,0.00
2013-12-13,57.7,51.1,43.3,55.4,46.7,37.9,92,85,78,30.34,29.84,7,1,7,0.03
2013-12-14,56.6,49.2,40.0,52.7,44.6,33.4,94,84,74,30.28,29.85,20,2,21,0.01
2013-12-15,55.8,42.9,32.1,36.7,33.0,28.6,88,70,46,30.39,30.27,10,1,12,0.00
2013-12-16,64.8,45.1,31.2,44.0,35.3,27.8,91,71,40,30.35,30.22,3,0,4,0.00
2013-12-17,70.0,49.9,35.6,51.2,40.2,32.3,91,72,39,30.34,30.22,4,0,4,0.00
2013-12-18,71.1,53.0,37.2,57.0,47.1,34.0,93,81,58,30.31,30.08,6,0,6,0.00
2013-12-19,77.3,64.5,49.6,66.6,59.9,46.7,92,85,68,30.09,29.85,7,0,8,0.09
2013-12-20,76.2,71.9,67.2,70.9,68.2,64.5,92,88,82,29.88,29.70,7,0,7,0.00
2013-12-21,73.6,66.4,54.3,70.1,63.0,51.6,92,89,83,29.84,29.55,11,0,11,0.33
2013-12-22,58.3,52.3,38.6,55.1,46.5,32.6,93,81,64,30.32,29.75,16,2,16,0.01
2013-12-23,53.6,42.1,33.4,35.6,32.6,29.4,85,70,46,30.52,30.32,10,2,10,0.00
2013-12-24,56.9,43.3,33.0,36.6,32.9,29.8,92,69,39,30.54,30.32,9,1,9,0.00
2013-12-25,57.7,50.4,38.4,50.4,44.8,33.4,92,81,74,30.34,30.26,7,1,10,0.01
2013-12-26,61.4,53.4,47.8,51.0,47.9,45.3,92,82,63,30.40,30.27,6,0,6,0.00
2013-12-27,58.5,52.5,48.3,46.2,43.2,39.8,83,71,55,30.41,30.29,6,1,8,0.00
2013-12-28,59.8,49.9,41.5,40.8,37.8,34.2,80,64,40,30.30,30.02,4,0,4,0.00
2013-12-29,68.4,51.8,37.5,50.0,41.3,33.0,89,70,43,30.17,29.98,11,0,12,0.00
2013-12-30,46.3,41.3,38.1,40.2,34.5,32.1,84,76,72,30.39,30.16,10,2,12,0.00
2013-12-31,48.9,44.5,39.9,40.4,35.4,31.9,79,70,62,30.45,30.26,7,1,8,0.00
2014-1-1,68.5,56.0,46.8,58.5,50.6,40.0,90,82,69,30.27,30.00,5,0,5,0.00
2014-1-2,58.9,46.1,37.0,56.1,34.3,26.0,92,65,41,30.44,30.05,20,4,20,0.00